Time;durP1;ratioP1;P1;durP2;ratioP2;P2;SDS_P1;SDS_P2;PMS_P1;PMS_P2;Temp;Humidity;BMP_temperature;BMP_pressure;BME280_temperature;BME280_humidity;BME280_pressure;Samples;Min_cycle;Max_cycle;Signal;HPM_P1;HPM_P2
2020/12/03 00:01:57;;;;;;;1.80;1.80;;;;;;;2.85;100.00;100525.00;4423247;32;20082;-67
2020/12/03 00:04:22;;;;;;;2.00;1.90;;;;;;;2.87;100.00;100527.50;4421915;32;20069;-67
2020/12/03 00:06:50;;;;;;;1.60;1.60;;;;;;;2.74;100.00;100504.16;4417588;32;20068;-68
2020/12/03 00:09:16;;;;;;;1.70;1.70;;;;;;;2.83;100.00;100521.72;4421963;32;20591;-68
2020/12/03 00:11:44;;;;;;;2.00;1.90;;;;;;;2.86;100.00;100512.63;4406785;32;20084;-68
2020/12/03 00:14:09;;;;;;;1.80;1.80;;;;;;;2.86;100.00;100510.78;4437954;32;20057;-68
2020/12/03 00:16:35;;;;;;;2.03;1.92;;;;;;;2.89;100.00;100504.38;4415022;32;20074;-68
2020/12/03 00:19:01;;;;;;;1.70;1.70;;;;;;;2.11;100.00;100392.84;4419740;32;20077;-67
2020/12/03 00:21:40;;;;;;;1.70;1.70;;;;;;;2.95;100.00;100501.91;4430392;32;20085;-68
2020/12/03 00:24:06;;;;;;;1.98;1.87;;;;;;;2.85;100.00;100493.31;4425258;32;20123;-68
2020/12/03 00:26:31;;;;;;;2.12;2.03;;;;;;;2.82;100.00;100496.28;4421988;32;20112;-67
2020/12/03 00:28:57;;;;;;;1.73;1.73;;;;;;;2.80;100.00;100485.88;4429273;32;20099;-68
2020/12/03 00:31:22;;;;;;;1.80;1.80;;;;;;;2.81;100.00;100489.31;4427390;32;20130;-68
2020/12/03 00:33:48;;;;;;;2.28;2.20;;;;;;;2.82;100.00;100483.06;4406246;32;20073;-68
2020/12/03 00:36:13;;;;;;;2.33;2.22;;;;;;;2.87;100.00;100470.19;4413673;32;20072;-67
2020/12/03 00:38:39;;;;;;;1.80;1.80;;;;;;;2.87;100.00;100470.19;4413475;32;20206;-66
2020/12/03 00:41:04;;;;;;;1.80;1.80;;;;;;;2.85;100.00;100461.63;4425347;32;20138;-67
2020/12/03 00:43:30;;;;;;;1.70;1.70;;;;;;;2.81;100.00;100455.84;4427785;32;20317;-69
2020/12/03 00:45:55;;;;;;;1.83;1.80;;;;;;;2.82;100.00;100456.66;4397197;32;20080;-67
2020/12/03 00:48:20;;;;;;;1.70;1.70;;;;;;;2.77;100.00;100449.22;4401815;32;20891;-67
2020/12/03 00:50:46;;;;;;;2.00;1.90;;;;;;;2.76;100.00;100441.44;4413678;32;20068;-67
2020/12/03 00:53:12;;;;;;;2.03;1.92;;;;;;;1.99;100.00;100318.44;4412926;32;20561;-67
2020/12/03 00:55:37;;;;;;;1.80;1.80;;;;;;;2.59;100.00;100404.47;4411583;32;20072;-69
2020/12/03 00:58:04;;;;;;;1.80;1.80;;;;;;;2.78;100.00;100436.84;4400216;32;20084;-69
2020/12/03 01:00:29;;;;;;;1.80;1.77;;;;;;;2.75;100.00;100423.97;4408755;32;20077;-67
2020/12/03 01:02:54;;;;;;;2.15;2.05;;;;;;;2.77;100.00;100433.34;4405226;32;20080;-67
2020/12/03 01:05:20;;;;;;;1.60;1.60;;;;;;;2.78;100.00;100424.47;4407858;32;20080;-67
2020/12/03 01:07:45;;;;;;;1.70;1.70;;;;;;;2.77;100.00;100421.97;4400331;32;20076;-67
2020/12/03 01:10:14;;;;;;;1.80;1.80;;;;;;;2.78;100.00;100421.00;4415574;32;20084;-68
2020/12/03 01:12:39;;;;;;;1.90;1.80;;;;;;;2.79;100.00;100420.00;4412110;32;20090;-68
2020/12/03 01:15:05;;;;;;;2.55;2.45;;;;;;;2.83;100.00;100416.06;4395594;32;20487;-68
2020/12/03 01:17:30;;;;;;;1.60;1.60;;;;;;;2.86;100.00;100412.25;4415874;32;20080;-67
2020/12/03 01:19:56;;;;;;;2.42;2.33;;;;;;;2.87;100.00;100403.34;4412267;32;20424;-68
2020/12/03 01:22:21;;;;;;;1.95;1.85;;;;;;;2.91;100.00;100397.53;4408956;32;20169;-68
2020/12/03 01:24:47;;;;;;;1.85;1.75;;;;;;;2.94;100.00;100397.22;4396815;32;20653;-68
2020/12/03 01:27:12;;;;;;;2.33;2.22;;;;;;;2.95;100.00;100396.22;4410649;32;20076;-67
2020/12/03 01:29:39;;;;;;;2.05;1.95;;;;;;;2.94;100.00;100391.94;4396952;32;20068;-67
2020/12/03 01:32:05;;;;;;;1.62;1.62;;;;;;;2.90;100.00;100380.06;4397693;32;20147;-67
2020/12/03 01:34:30;;;;;;;2.62;2.53;;;;;;;2.87;100.00;100380.38;4401793;32;20622;-68
2020/12/03 01:36:55;;;;;;;1.60;1.60;;;;;;;2.88;100.00;100382.03;4415392;32;20158;-68
2020/12/03 01:39:21;;;;;;;1.70;1.70;;;;;;;2.87;100.00;100361.06;4411410;32;20151;-67
2020/12/03 01:41:47;;;;;;;1.60;1.60;;;;;;;2.83;100.00;100352.66;4410226;32;20106;-69
2020/12/03 01:44:12;;;;;;;2.15;2.05;;;;;;;2.85;100.00;100350.66;4414942;32;20072;-67
2020/12/03 01:46:38;;;;;;;1.70;1.70;;;;;;;2.85;100.00;100336.66;4401877;32;20089;-67
2020/12/03 01:49:18;;;;;;;1.75;1.75;;;;;;;2.88;100.00;100339.78;4414996;32;20084;-67
2020/12/03 01:51:48;;;;;;;1.70;1.70;;;;;;;2.87;100.00;100337.31;4415014;32;20081;-67
2020/12/03 01:54:14;;;;;;;1.70;1.70;;;;;;;2.84;100.00;100325.22;4399222;32;20069;-68
2020/12/03 01:56:59;;;;;;;1.77;1.75;;;;;;;2.86;100.00;100331.16;4405598;32;20061;-67
2020/12/03 01:59:26;;;;;;;1.70;1.70;;;;;;;2.83;100.00;100326.25;4421446;32;20127;-67
2020/12/03 02:01:51;;;;;;;2.00;1.90;;;;;;;2.90;100.00;100332.50;4396824;32;20060;-67
2020/12/03 02:04:17;;;;;;;1.95;1.90;;;;;;;2.87;100.00;100326.72;4406370;32;20249;-67
2020/12/03 02:06:42;;;;;;;1.70;1.70;;;;;;;2.79;100.00;100298.50;4396887;32;20147;-67
2020/12/03 02:09:10;;;;;;;1.83;1.80;;;;;;;2.90;100.00;100307.87;4419361;32;20084;-67
2020/12/03 02:11:35;;;;;;;2.08;1.98;;;;;;;2.92;100.00;100306.75;4412726;32;20065;-67
2020/12/03 02:14:06;;;;;;;1.65;1.65;;;;;;;2.97;100.00;100308.88;4401978;32;20076;-67
2020/12/03 02:16:34;;;;;;;1.70;1.70;;;;;;;3.00;100.00;100304.09;4410899;32;20453;-67
2020/12/03 02:18:59;;;;;;;1.60;1.60;;;;;;;2.99;100.00;100294.50;4417643;32;20053;-66
2020/12/03 02:21:25;;;;;;;2.20;2.10;;;;;;;2.93;100.00;100283.78;4411334;32;20082;-67
2020/12/03 02:23:50;;;;;;;1.62;1.62;;;;;;;3.01;100.00;100287.22;4408149;32;20155;-67
2020/12/03 02:26:16;;;;;;;2.00;1.95;;;;;;;3.04;100.00;100282.62;4412202;32;20069;-68
2020/12/03 02:28:41;;;;;;;2.10;2.00;;;;;;;3.03;100.00;100283.59;4403557;32;20065;-68
2020/12/03 02:31:07;;;;;;;1.77;1.77;;;;;;;3.02;100.00;100272.22;4415716;32;20145;-66
2020/12/03 02:33:33;;;;;;;1.67;1.67;;;;;;;3.03;100.00;100257.19;4406681;32;20175;-68
2020/12/03 02:35:58;;;;;;;1.80;1.80;;;;;;;2.99;100.00;100257.50;4409849;32;20211;-67
2020/12/03 02:38:24;;;;;;;1.73;1.73;;;;;;;3.06;100.00;100248.91;4409421;32;20131;-67
2020/12/03 02:40:50;;;;;;;2.30;2.10;;;;;;;3.04;100.00;100237.69;4398246;32;20915;-67
2020/12/03 02:43:15;;;;;;;2.08;1.98;;;;;;;3.05;100.00;100226.94;4409438;32;20470;-66
2020/12/03 02:45:41;;;;;;;1.80;1.80;;;;;;;2.98;100.00;100218.88;4408230;32;20065;-67
2020/12/03 02:48:06;;;;;;;1.70;1.70;;;;;;;3.04;100.00;100227.13;4398871;32;20408;-67
2020/12/03 02:50:31;;;;;;;1.73;1.73;;;;;;;3.00;100.00;100223.97;4414098;32;20591;-68
2020/12/03 02:52:57;;;;;;;1.73;1.73;;;;;;;2.97;100.00;100222.50;4400326;32;20082;-68
2020/12/03 02:55:22;;;;;;;1.80;1.80;;;;;;;2.92;100.00;100213.47;4410869;32;20080;-67
2020/12/03 02:57:48;;;;;;;1.95;1.90;;;;;;;2.90;100.00;100211.00;4419583;32;20102;-67
2020/12/03 03:00:13;;;;;;;1.80;1.80;;;;;;;2.91;100.00;100212.63;4427272;32;20083;-67
2020/12/03 03:02:39;;;;;;;1.90;1.80;;;;;;;2.91;100.00;100203.88;4414269;32;20206;-66
2020/12/03 03:05:04;;;;;;;1.70;1.70;;;;;;;2.68;100.00;100161.53;4423144;32;20099;-67
2020/12/03 03:07:29;;;;;;;2.20;2.10;;;;;;;2.91;100.00;100203.88;4417995;32;20173;-67
2020/12/03 03:09:55;;;;;;;1.83;1.83;;;;;;;2.93;100.00;100194.81;4413475;32;20075;-68
2020/12/03 03:12:20;;;;;;;1.80;1.80;;;;;;;2.94;100.00;100195.63;4415713;32;20262;-68
2020/12/03 03:14:45;;;;;;;1.60;1.60;;;;;;;2.96;100.00;100185.69;4423543;32;20544;-67
2020/12/03 03:17:11;;;;;;;1.70;1.70;;;;;;;2.98;100.00;100181.06;4411914;32;20115;-67
2020/12/03 03:19:37;;;;;;;1.70;1.70;;;;;;;2.87;100.00;100158.50;4423836;32;20207;-67
2020/12/03 03:22:02;;;;;;;1.70;1.70;;;;;;;3.04;100.00;100187.50;4414412;32;20080;-67
2020/12/03 03:24:28;;;;;;;1.80;1.80;;;;;;;3.04;100.00;100182.22;4406974;32;20696;-67
2020/12/03 03:26:53;;;;;;;2.05;1.95;;;;;;;2.95;100.00;100171.69;4411377;32;20159;-67
2020/12/03 03:29:18;;;;;;;1.65;1.65;;;;;;;3.05;100.00;100168.81;4424298;32;20169;-68
2020/12/03 03:31:44;;;;;;;1.70;1.70;;;;;;;3.05;100.00;100179.37;4428479;32;20559;-67
2020/12/03 03:34:09;;;;;;;2.22;2.12;;;;;;;3.07;100.00;100168.63;4427085;32;20196;-68
2020/12/03 03:36:35;;;;;;;1.80;1.80;;;;;;;3.09;100.00;100172.75;4427757;32;20130;-67
2020/12/03 03:39:00;;;;;;;1.85;1.80;;;;;;;3.12;100.00;100182.16;4432187;32;20189;-69
2020/12/03 03:41:26;;;;;;;1.60;1.60;;;;;;;3.12;100.00;100161.00;4412618;32;20142;-67
2020/12/03 03:43:52;;;;;;;2.20;2.00;;;;;;;3.14;100.00;100164.31;4427247;32;20092;-67
2020/12/03 03:46:17;;;;;;;1.62;1.62;;;;;;;3.14;100.00;100159.00;4414425;32;20096;-67
2020/12/03 03:48:43;;;;;;;1.67;1.67;;;;;;;3.16;100.00;100151.75;4428594;32;20091;-67
2020/12/03 03:51:08;;;;;;;1.80;1.80;;;;;;;3.16;100.00;100141.19;4412552;32;20176;-67
2020/12/03 03:53:34;;;;;;;1.70;1.70;;;;;;;3.15;100.00;100142.19;4412899;32;20089;-67
2020/12/03 03:55:59;;;;;;;1.80;1.80;;;;;;;3.15;100.00;100136.88;4411976;32;20069;-67
2020/12/03 03:58:24;;;;;;;1.60;1.60;;;;;;;3.15;100.00;100131.59;4409048;32;20068;-67
2020/12/03 04:00:50;;;;;;;2.00;1.90;;;;;;;3.10;100.00;100118.09;4417157;32;20068;-67
2020/12/03 04:03:18;;;;;;;1.70;1.70;;;;;;;3.08;100.00;100118.25;4414906;32;20061;-67
2020/12/03 04:05:45;;;;;;;2.05;1.95;;;;;;;3.05;100.00;100120.44;4391933;32;20073;-67
2020/12/03 04:08:11;;;;;;;2.10;2.00;;;;;;;3.04;100.00;100114.34;4418957;32;20072;-67
2020/12/03 04:10:38;;;;;;;2.30;2.20;;;;;;;3.05;100.00;100107.22;4412733;32;21662;-67
2020/12/03 04:13:03;;;;;;;2.10;2.00;;;;;;;3.06;100.00;100103.59;4402845;32;20175;-66
2020/12/03 04:15:29;;;;;;;1.65;1.65;;;;;;;3.01;100.00;100115.50;4400246;32;20053;-68
2020/12/03 04:17:54;;;;;;;1.67;1.67;;;;;;;2.82;100.00;100065.75;4413226;32;20311;-67
2020/12/03 04:20:19;;;;;;;1.90;1.90;;;;;;;3.05;100.00;100100.09;4407274;32;20566;-67
2020/12/03 04:22:45;;;;;;;2.28;2.17;;;;;;;3.07;100.00;100090.22;4400139;32;20137;-67
2020/12/03 04:25:10;;;;;;;1.70;1.70;;;;;;;3.08;100.00;100083.09;4400141;32;20146;-67
2020/12/03 04:27:36;;;;;;;1.85;1.80;;;;;;;3.05;100.00;100089.53;4408736;32;20068;-67
2020/12/03 04:30:03;;;;;;;1.90;1.80;;;;;;;3.01;100.00;100081.13;4404376;32;20601;-67
2020/12/03 04:32:29;;;;;;;1.70;1.70;;;;;;;3.04;100.00;100084.47;4413305;32;20080;-68
2020/12/03 04:34:54;;;;;;;2.28;2.17;;;;;;;2.99;100.00;100077.84;4407285;32;20073;-68
2020/12/03 04:37:19;;;;;;;2.03;1.92;;;;;;;2.86;100.00;100053.81;4408780;32;20661;-67
2020/12/03 04:39:45;;;;;;;2.00;1.90;;;;;;;3.03;100.00;100082.81;4408056;32;20069;-67
2020/12/03 04:42:28;;;;;;;2.28;2.17;;;;;;;3.03;100.00;100069.59;4403630;32;20069;-68
2020/12/03 04:44:54;;;;;;;1.77;1.77;;;;;;;3.00;100.00;100061.03;4409888;32;20085;-67
2020/12/03 04:47:38;;;;;;;1.62;1.62;;;;;;;2.97;100.00;100061.37;4403969;32;20353;-67
2020/12/03 04:50:29;;;;;;;2.00;1.90;;;;;;;2.95;100.00;100059.88;4415032;32;20076;-67
2020/12/03 04:52:57;;;;;;;1.80;1.80;;;;;;;2.92;100.00;100061.06;4407566;32;20633;-67
2020/12/03 04:55:30;;;;;;;3.08;2.97;;;;;;;2.92;100.00;100055.78;4419254;32;20092;-67
2020/12/03 04:58:31;;;;;;;1.70;1.70;;;;;;;2.92;100.00;100053.13;4409263;32;20331;-68
2020/12/03 05:01:34;;;;;;;2.03;1.92;;;;;;;2.91;100.00;100062.06;4419246;32;20098;-67
2020/12/03 05:04:13;;;;;;;2.15;2.05;;;;;;;2.91;100.00;100053.31;4433645;32;20087;-67
2020/12/03 05:07:08;;;;;;;2.12;2.03;;;;;;;2.91;100.00;100055.94;4423305;32;20077;-67
2020/12/03 05:09:35;;;;;;;1.60;1.60;;;;;;;2.88;100.00;100049.22;4413223;32;20805;-68
2020/12/03 05:12:10;;;;;;;1.70;1.70;;;;;;;2.87;100.00;100059.94;4409620;32;20083;-68
2020/12/03 05:14:45;;;;;;;1.70;1.70;;;;;;;2.87;100.00;100063.41;4423493;32;20067;-68
2020/12/03 05:17:39;;;;;;;1.80;1.80;;;;;;;2.86;100.00;100051.19;4429109;32;20086;-67
2020/12/03 05:20:10;;;;;;;1.62;1.62;;;;;;;2.85;100.00;100052.19;4418983;32;20603;-67
2020/12/03 05:22:36;;;;;;;1.60;1.60;;;;;;;2.63;100.00;100006.25;4439701;32;20076;-67
2020/12/03 05:25:01;;;;;;;1.70;1.70;;;;;;;2.81;100.00;100038.53;4420869;32;20079;-68
2020/12/03 05:27:28;;;;;;;1.60;1.60;;;;;;;2.85;100.00;100038.19;4426983;32;20107;-69
2020/12/03 05:29:54;;;;;;;1.70;1.70;;;;;;;2.85;100.00;100031.06;4426721;32;20079;-66
2020/12/03 05:32:20;;;;;;;2.10;2.00;;;;;;;2.85;100.00;100033.72;4417050;32;20077;-67
2020/12/03 05:34:45;;;;;;;1.92;1.87;;;;;;;2.85;100.00;100028.44;4408963;32;20609;-67
2020/12/03 05:37:12;;;;;;;1.67;1.67;;;;;;;2.86;100.00;100018.66;4417945;32;20079;-67
2020/12/03 05:39:47;;;;;;;1.70;1.70;;;;;;;2.87;100.00;100018.50;4410942;32;20087;-67
2020/12/03 05:42:16;;;;;;;1.60;1.60;;;;;;;2.90;100.00;100015.50;4429504;32;20753;-66
2020/12/03 05:44:49;;;;;;;1.70;1.70;;;;;;;2.91;100.00;100008.41;4408179;32;20090;-67
2020/12/03 05:47:21;;;;;;;1.60;1.60;;;;;;;2.91;100.00;100005.75;4425974;32;20084;-67
2020/12/03 05:49:47;;;;;;;1.70;1.70;;;;;;;2.94;100.00;100005.41;4416419;32;21280;-67
2020/12/03 05:52:17;;;;;;;2.10;2.00;;;;;;;2.94;100.00;100000.94;4427815;32;20142;-67
2020/12/03 05:55:13;;;;;;;2.00;1.90;;;;;;;2.95;100.00;99992.03;4411244;32;20195;-67
2020/12/03 05:57:43;;;;;;;1.70;1.70;;;;;;;2.95;100.00;99978.81;4393976;32;20192;-67
2020/12/03 06:00:11;;;;;;;1.87;1.87;;;;;;;2.94;100.00;99974.53;4411248;32;20175;-67
2020/12/03 06:02:53;;;;;;;1.70;1.70;;;;;;;2.88;100.00;99961.19;4420493;32;20068;-67
2020/12/03 06:05:49;;;;;;;1.80;1.80;;;;;;;2.91;100.00;99966.94;4408566;32;20088;-67
2020/12/03 06:08:39;;;;;;;1.70;1.70;;;;;;;2.90;100.00;99967.97;4397471;32;20155;-67
2020/12/03 06:11:10;;;;;;;1.70;1.70;;;;;;;2.78;100.00;99943.78;4427249;32;20064;-67
2020/12/03 06:14:05;;;;;;;2.00;1.90;;;;;;;2.76;100.00;99939.66;4415470;32;20076;-66
2020/12/03 06:16:43;;;;;;;1.87;1.83;;;;;;;2.92;100.00;99958.03;4384009;32;20673;-67
2020/12/03 06:19:19;;;;;;;2.47;2.37;;;;;;;2.94;100.00;99953.41;4395034;32;20071;-68
2020/12/03 06:22:03;;;;;;;1.55;1.55;;;;;;;2.94;100.00;99953.41;4391273;32;20069;-67
2020/12/03 06:24:41;;;;;;;1.80;1.80;;;;;;;2.96;100.00;99959.31;4413735;32;20068;-66
2020/12/03 06:27:21;;;;;;;1.87;1.87;;;;;;;2.97;100.00;99947.78;4416965;32;20101;-65
2020/12/03 06:29:53;;;;;;;1.77;1.77;;;;;;;2.96;100.00;99950.59;4420687;32;20107;-68
2020/12/03 06:32:48;;;;;;;1.70;1.70;;;;;;;2.97;100.00;99937.19;4401969;32;20336;-70
2020/12/03 06:35:17;;;;;;;1.85;1.80;;;;;;;3.00;100.00;99928.94;4407798;32;20158;-70
2020/12/03 06:37:50;;;;;;;2.45;2.35;;;;;;;3.01;100.00;99922.63;4406074;32;20077;-68
2020/12/03 06:40:22;;;;;;;2.05;1.95;;;;;;;2.99;100.00;99907.97;4399495;32;20089;-69
2020/12/03 06:43:05;;;;;;;1.70;1.70;;;;;;;3.03;100.00;99903.97;4410522;32;20068;-68
2020/12/03 06:45:45;;;;;;;1.80;1.80;;;;;;;2.99;100.00;99898.22;4410734;32;20076;-71
2020/12/03 06:48:19;;;;;;;1.80;1.80;;;;;;;2.98;100.00;99886.03;4392602;32;20658;-68
2020/12/03 06:51:06;;;;;;;2.33;2.10;;;;;;;2.97;100.00;99894.13;4408537;32;20487;-67
2020/12/03 06:53:42;;;;;;;1.70;1.70;;;;;;;2.96;100.00;99890.62;4415240;32;20088;-68
2020/12/03 06:56:29;;;;;;;1.60;1.60;;;;;;;2.96;100.00;99889.81;4408438;32;20113;-68
2020/12/03 06:59:33;;;;;;;1.70;1.70;;;;;;;2.95;100.00;99886.37;4396013;32;20083;-69
2020/12/03 07:02:24;;;;;;;1.70;1.70;;;;;;;2.95;100.00;99890.81;4409576;32;20405;-69
2020/12/03 07:05:20;;;;;;;1.70;1.70;;;;;;;2.95;100.00;99890.81;4388832;32;20092;-69
2020/12/03 07:07:48;;;;;;;1.62;1.62;;;;;;;2.94;100.00;99887.37;4401515;32;20422;-67
2020/12/03 07:10:44;;;;;;;1.80;1.80;;;;;;;2.95;100.00;99891.66;4407536;32;20087;-68
2020/12/03 07:13:25;;;;;;;2.17;2.08;;;;;;;2.97;100.00;99889.66;4405133;32;20072;-68
2020/12/03 07:16:09;;;;;;;2.28;2.17;;;;;;;2.96;100.00;99887.19;4406993;32;20149;-66
2020/12/03 07:18:43;;;;;;;2.25;2.15;;;;;;;2.94;100.00;99886.53;4402243;32;20488;-68
2020/12/03 07:21:30;;;;;;;2.10;2.00;;;;;;;2.92;100.00;99886.72;4424649;32;20191;-71
2020/12/03 07:24:04;;;;;;;3.35;2.12;;;;;;;2.95;100.00;99891.66;4414572;32;20820;-67
2020/12/03 07:26:30;;;;;;;2.05;1.95;;;;;;;2.95;100.00;99891.66;4366826;32;20087;-71
2020/12/03 07:28:55;;;;;;;2.17;2.08;;;;;;;2.96;100.00;99889.81;4418044;32;20070;-70
2020/12/03 07:31:30;;;;;;;1.70;1.70;;;;;;;2.87;100.00;99867.12;4405650;32;20941;-70
2020/12/03 07:34:14;;;;;;;2.37;2.28;;;;;;;2.98;99.61;99886.03;4392449;32;20512;-67
2020/12/03 07:36:57;;;;;;;1.80;1.80;;;;;;;3.01;99.60;99880.34;4428537;32;20115;-69
2020/12/03 07:39:26;;;;;;;2.35;2.25;;;;;;;3.01;99.17;99872.44;4405270;32;20061;-72
2020/12/03 07:41:51;;;;;;;2.10;2.00;;;;;;;3.01;99.17;99864.50;4400186;32;20531;-71
2020/12/03 07:44:27;;;;;;;1.62;1.62;;;;;;;2.99;99.31;99866.50;4434726;32;20068;-71
2020/12/03 07:46:54;;;;;;;2.00;1.90;;;;;;;2.98;99.72;99848.19;4412122;32;20420;-69
2020/12/03 07:49:42;;;;;;;1.70;1.70;;;;;;;3.00;99.01;99857.59;4414438;32;20089;-68
2020/12/03 07:52:23;;;;;;;1.77;1.77;;;;;;;3.03;99.49;99855.59;4414273;32;20077;-69
2020/12/03 07:54:48;;;;;;;1.80;1.77;;;;;;;3.03;99.15;99861.69;4419750;32;20068;-69
2020/12/03 07:57:43;;;;;;;1.65;1.65;;;;;;;3.06;99.28;99855.25;4402500;32;20108;-70
2020/12/03 08:00:24;;;;;;;2.20;2.10;;;;;;;3.04;99.08;99857.25;4381331;32;20571;-68
2020/12/03 08:02:50;;;;;;;1.80;1.80;;;;;;;3.05;98.93;99853.59;4414890;32;20204;-68
2020/12/03 08:05:40;;;;;;;1.83;1.83;;;;;;;3.01;98.94;99853.94;4408424;32;20648;-68
2020/12/03 08:08:07;;;;;;;1.80;1.80;;;;;;;3.02;98.89;99846.84;4433136;32;20087;-69
2020/12/03 08:10:37;;;;;;;2.25;2.15;;;;;;;3.02;99.08;99849.50;4395720;32;20840;-69
2020/12/03 08:13:22;;;;;;;1.65;1.65;;;;;;;2.97;99.06;99852.66;4408951;32;20098;-67
2020/12/03 08:16:02;;;;;;;2.83;2.72;;;;;;;2.99;100.00;99841.94;4412539;32;20088;-68
2020/12/03 08:18:35;;;;;;;2.30;2.20;;;;;;;2.97;99.51;99836.00;4404452;32;20080;-68
2020/12/03 08:21:00;;;;;;;2.40;2.30;;;;;;;2.98;99.70;99833.19;4416543;32;20076;-67
2020/12/03 08:23:26;;;;;;;1.70;1.70;;;;;;;3.00;99.42;99830.34;4408150;32;20092;-67
2020/12/03 08:25:51;;;;;;;1.80;1.80;;;;;;;2.99;98.45;99828.72;4413109;32;21055;-68
2020/12/03 08:28:20;;;;;;;1.60;1.60;;;;;;;2.98;98.95;99827.91;4402761;32;20083;-67
2020/12/03 08:30:52;;;;;;;2.20;2.10;;;;;;;2.91;98.74;99815.59;4402890;32;20106;-67
2020/12/03 08:33:31;;;;;;;1.77;1.70;;;;;;;2.87;99.21;99807.19;4416996;32;20681;-67
2020/12/03 08:36:03;;;;;;;1.60;1.60;;;;;;;2.90;98.92;99808.66;4413028;32;20134;-68
2020/12/03 08:38:38;;;;;;;;;;;;;;;2.89;98.77;99812.31;4408272;32;20076;-68
2020/12/03 08:41:06;;;;;;;1.90;1.83;;;;;;;2.77;99.13;99786.31;4394346;32;19980;-68
2020/12/03 08:43:41;;;;;;;1.60;1.60;;;;;;;2.89;98.89;99802.56;4408265;32;20137;-68
2020/12/03 08:46:13;;;;;;;1.77;1.77;;;;;;;2.94;98.73;99792.25;4417055;32;20096;-69
2020/12/03 08:48:39;;;;;;;2.60;2.45;;;;;;;2.97;99.17;99789.28;4410755;32;20856;-68
2020/12/03 08:51:07;;;;;;;1.60;1.60;;;;;;;3.00;98.23;99786.28;4399988;32;20073;-68
2020/12/03 08:53:34;;;;;;;1.70;1.70;;;;;;;3.02;98.10;99783.44;4410232;32;20083;-68
2020/12/03 08:56:09;;;;;;;1.83;1.83;;;;;;;3.04;97.79;99778.00;4407987;32;20667;-68
2020/12/03 08:58:34;;;;;;;1.70;1.70;;;;;;;3.09;98.38;99781.72;4433867;32;20073;-67
2020/12/03 09:00:59;;;;;;;1.70;1.70;;;;;;;3.09;97.78;99771.16;4416505;32;20119;-68
2020/12/03 09:03:25;;;;;;;1.62;1.62;;;;;;;3.06;98.68;99766.22;4420087;32;20111;-69
2020/12/03 09:05:50;;;;;;;2.10;2.00;;;;;;;3.17;97.61;99764.94;4407294;32;20616;-70
2020/12/03 09:08:18;;;;;;;1.67;1.67;;;;;;;3.15;96.95;99761.66;4405256;32;20088;-68
2020/12/03 09:10:43;;;;;;;2.20;2.10;;;;;;;3.14;97.22;99752.94;4420091;32;20131;-68
2020/12/03 09:13:09;;;;;;;2.70;2.60;;;;;;;2.31;97.18;99614.91;4421154;32;20688;-69
2020/12/03 09:15:35;;;;;;;1.73;1.73;;;;;;;3.22;96.80;99737.97;4412466;32;20147;-68
2020/12/03 09:18:00;;;;;;;2.00;1.90;;;;;;;3.19;96.22;99733.84;4421094;32;20646;-67
2020/12/03 09:20:26;;;;;;;2.58;1.95;;;;;;;3.15;96.25;99719.37;4400036;32;20066;-69
2020/12/03 09:22:51;;;;;;;1.60;1.60;;;;;;;3.24;96.55;99731.47;4415041;32;20076;-69
2020/12/03 09:25:16;;;;;;;1.70;1.70;;;;;;;3.25;96.49;99727.84;4407047;32;20171;-69
2020/12/03 09:27:46;;;;;;;1.70;1.70;;;;;;;3.23;96.70;99719.28;4415310;32;20084;-66
2020/12/03 09:30:16;;;;;;;1.90;1.80;;;;;;;3.24;96.44;99720.91;4416107;32;20093;-66
2020/12/03 09:32:42;;;;;;;1.65;1.65;;;;;;;3.14;96.44;99694.78;4417758;32;20116;-65
2020/12/03 09:35:08;;;;;;;1.98;1.90;;;;;;;3.31;96.28;99715.72;4415617;32;21076;-68
2020/12/03 09:37:33;;;;;;;2.03;1.92;;;;;;;3.28;96.47;99706.34;4424846;32;20145;-67
2020/12/03 09:40:00;;;;;;;1.77;1.77;;;;;;;3.35;96.08;99707.22;4407227;32;20072;-67
2020/12/03 09:42:26;;;;;;;1.80;1.80;;;;;;;3.42;94.98;99703.87;4416734;32;20065;-68
2020/12/03 09:44:57;;;;;;;1.98;1.87;;;;;;;3.41;96.25;99683.72;4411474;32;20083;-67
2020/12/03 09:47:24;;;;;;;1.55;1.55;;;;;;;3.45;96.10;99684.97;4424644;32;20076;-67
2020/12/03 09:49:50;;;;;;;2.17;2.08;;;;;;;3.50;96.17;99683.41;4418913;32;20197;-68
2020/12/03 09:52:16;;;;;;;1.70;1.70;;;;;;;3.50;94.84;99670.19;4415814;32;20100;-67
2020/12/03 09:54:41;;;;;;;1.70;1.70;;;;;;;3.59;95.85;99673.53;4392041;32;20092;-68
2020/12/03 09:57:10;;;;;;;2.10;2.00;;;;;;;3.64;95.55;99673.78;4403753;32;20889;-66
2020/12/03 09:59:36;;;;;;;1.60;1.60;;;;;;;3.62;94.67;99673.13;4388156;32;20177;-67
2020/12/03 10:02:09;;;;;;;2.08;1.98;;;;;;;3.62;94.68;99675.78;4408747;32;20131;-70
2020/12/03 10:04:59;;;;;;;1.70;1.70;;;;;;;3.66;95.13;99671.78;4411968;32;20111;-67
2020/12/03 10:07:49;;;;;;;1.75;1.75;;;;;;;3.76;95.11;99663.53;4411306;32;20096;-66
2020/12/03 10:10:45;;;;;;;1.70;1.70;;;;;;;3.81;94.84;99657.66;4421102;32;20200;-67
2020/12/03 10:13:18;;;;;;;2.08;1.98;;;;;;;3.81;93.85;99652.38;4408220;32;20090;-66
2020/12/03 10:16:03;;;;;;;2.50;2.40;;;;;;;3.81;94.27;99647.06;4413590;32;20065;-68
2020/12/03 10:18:38;;;;;;;1.90;1.80;;;;;;;3.79;94.10;99641.97;4384405;32;20083;-67
2020/12/03 10:21:03;;;;;;;2.60;2.50;;;;;;;3.79;94.39;99631.38;4398221;32;20077;-67
2020/12/03 10:23:45;;;;;;;1.60;1.60;;;;;;;3.80;95.04;99625.09;4405503;32;20088;-68
2020/12/03 10:26:21;;;;;;;2.10;2.00;;;;;;;3.77;94.70;99617.53;4408606;32;20068;-66
2020/12/03 10:28:52;;;;;;;2.00;1.90;;;;;;;3.81;94.79;99610.03;4406782;32;20150;-66
2020/12/03 10:31:17;;;;;;;2.50;2.42;;;;;;;3.83;94.47;99614.16;4402486;32;20105;-69
2020/12/03 10:33:47;;;;;;;1.70;1.70;;;;;;;3.84;95.03;99604.37;4407834;32;20190;-68
2020/12/03 10:36:19;;;;;;;1.80;1.80;;;;;;;3.91;94.51;99594.66;4383511;32;20848;-68
2020/12/03 10:38:46;;;;;;;2.00;1.90;;;;;;;3.94;93.97;99578.41;4396686;32;20189;-68
2020/12/03 10:41:11;;;;;;;1.80;1.80;;;;;;;3.95;94.56;99569.47;4408127;32;20081;-66
2020/12/03 10:43:39;;;;;;;1.60;1.60;;;;;;;3.94;94.22;99567.81;4392590;32;20131;-68
2020/12/03 10:46:08;;;;;;;1.80;1.80;;;;;;;4.03;94.40;99558.72;4406500;32;20556;-68
2020/12/03 10:48:39;;;;;;;1.77;1.77;;;;;;;3.93;94.95;99545.00;4401012;32;20077;-67
2020/12/03 10:51:08;;;;;;;2.00;1.90;;;;;;;3.97;94.08;99551.56;4394105;32;20086;-69
2020/12/03 10:53:34;;;;;;;1.70;1.70;;;;;;;4.02;94.36;99554.47;4404774;32;20087;-67
2020/12/03 10:56:04;;;;;;;3.03;2.83;;;;;;;3.98;94.10;99547.09;4420350;32;20100;-68
2020/12/03 10:58:40;;;;;;;1.80;1.80;;;;;;;4.00;94.53;99540.59;4412722;32;20077;-68
2020/12/03 11:01:07;;;;;;;2.12;2.03;;;;;;;4.04;94.67;99525.16;4417257;32;20092;-66
2020/12/03 11:03:33;;;;;;;1.80;1.80;;;;;;;4.05;94.75;99524.97;4410421;32;20071;-67
2020/12/03 11:05:58;;;;;;;2.03;1.92;;;;;;;4.10;95.16;99513.78;4407951;32;20934;-65
2020/12/03 11:08:24;;;;;;;2.28;2.17;;;;;;;4.12;94.64;99509.94;4393919;32;20096;-68
2020/12/03 11:10:53;;;;;;;2.00;1.90;;;;;;;4.12;94.10;99507.28;4415254;32;20893;-69
2020/12/03 11:13:20;;;;;;;1.70;1.70;;;;;;;4.13;94.48;99511.56;4406278;32;20096;-69
2020/12/03 11:15:47;;;;;;;1.98;1.90;;;;;;;4.16;93.92;99506.88;4424575;32;20080;-70
2020/12/03 11:18:12;;;;;;;2.15;2.05;;;;;;;3.42;93.49;99394.59;4413563;32;20938;-68
2020/12/03 11:20:38;;;;;;;1.83;1.83;;;;;;;4.23;93.67;99487.38;4403682;32;20072;-69
2020/12/03 11:23:04;;;;;;;1.70;1.70;;;;;;;4.26;92.73;99491.47;4415164;32;20080;-69
2020/12/03 11:25:30;;;;;;;2.00;1.90;;;;;;;3.54;92.91;99356.03;4399039;32;20637;-69
2020/12/03 11:27:59;;;;;;;1.60;1.60;;;;;;;4.35;91.80;99469.13;4416858;32;20076;-70
2020/12/03 11:30:27;;;;;;;1.77;1.77;;;;;;;4.09;91.80;99416.91;4425466;32;20084;-69
2020/12/03 11:32:53;;;;;;;1.70;1.70;;;;;;;4.42;91.41;99459.37;4409074;32;20079;-70
2020/12/03 11:35:28;;;;;;;1.90;1.80;;;;;;;4.54;91.68;99456.16;4406873;32;20118;-70
2020/12/03 11:37:54;;;;;;;1.70;1.70;;;;;;;4.59;90.34;99445.75;4423588;32;20061;-69
2020/12/03 11:40:52;;;;;;;1.73;1.73;;;;;;;4.64;89.33;99440.66;4417703;32;20119;-63
2020/12/03 11:48:40;;;;;;;1.60;1.60;;;;;;;4.87;88.68;99425.22;4430639;32;20352;-69
2020/12/03 11:51:05;;;;;;;1.80;1.80;;;;;;;4.87;87.46;99429.72;4415945;32;20792;-69
2020/12/03 11:53:31;;;;;;;1.75;1.75;;;;;;;4.87;87.14;99409.31;4416295;32;20137;-68